Time;durP1;ratioP1;P1;durP2;ratioP2;P2;SDS_P1;SDS_P2;PMS_P1;PMS_P2;Temp;Humidity;BMP_temperature;BMP_pressure;BME280_temperature;BME280_humidity;BME280_pressure;Samples;Min_cycle;Max_cycle;Signal;HPM_P1;HPM_P2
2022/07/08 00:00:43;;;;;;;4.57;1.75;;;18.40;99.90;;;;;;5028558;28;20022;-90
2022/07/08 00:03:09;;;;;;;1.27;1.02;;;18.40;99.90;;;;;;5023788;28;20018;-90
2022/07/08 00:05:35;;;;;;;2.45;1.10;;;18.30;99.90;;;;;;5007477;28;20117;-93
2022/07/08 00:08:02;;;;;;;1.85;1.50;;;18.40;99.90;;;;;;5022239;28;20208;-92
2022/07/08 00:10:28;;;;;;;3.83;1.52;;;18.40;99.90;;;;;;5011608;28;20026;-92
2022/07/08 00:12:54;;;;;;;1.25;1.15;;;18.40;99.90;;;;;;5034054;28;20041;-93
2022/07/08 00:15:21;;;;;;;1.98;1.10;;;18.50;99.90;;;;;;5007287;28;20037;-91
2022/07/08 00:17:47;;;;;;;1.88;1.30;;;18.50;99.90;;;;;;5014700;28;20037;-94
2022/07/08 00:20:13;;;;;;;2.50;1.20;;;18.40;99.90;;;;;;5018402;28;20033;-92
2022/07/08 00:22:39;;;;;;;1.75;1.42;;;18.40;99.90;;;;;;5018796;28;20022;-93
2022/07/08 00:25:05;;;;;;;1.15;1.05;;;18.40;99.90;;;;;;5018287;28;20061;-91
2022/07/08 00:27:32;;;;;;;1.67;1.58;;;18.40;99.90;;;;;;5020267;28;20053;-94
2022/07/08 00:29:57;;;;;;;3.05;1.80;;;18.40;99.90;;;;;;5023622;28;20049;-93
2022/07/08 00:32:23;;;;;;;3.58;1.48;;;18.40;99.90;;;;;;5028665;28;20030;-93
2022/07/08 00:34:50;;;;;;;1.60;1.25;;;18.40;99.90;;;;;;5028209;28;20037;-93
2022/07/08 00:37:17;;;;;;;1.23;1.10;;;18.40;99.90;;;;;;5021494;28;20353;-93
2022/07/08 00:39:43;;;;;;;1.90;1.40;;;18.40;99.90;;;;;;5059259;28;20052;-92
2022/07/08 00:42:10;;;;;;;2.38;1.38;;;18.40;99.90;;;;;;5048293;28;20018;-92
2022/07/08 00:44:39;;;;;;;4.65;1.58;;;18.30;99.90;;;;;;5052521;28;20074;-91
2022/07/08 00:47:05;;;;;;;2.80;1.38;;;18.30;99.90;;;;;;5058067;28;20028;-92
2022/07/08 00:49:31;;;;;;;2.90;1.58;;;18.30;99.90;;;;;;5064277;28;20085;-91
2022/07/08 00:51:57;;;;;;;2.95;1.55;;;18.20;99.90;;;;;;5061062;28;20050;-92
2022/07/08 00:54:24;;;;;;;3.00;1.77;;;18.20;99.90;;;;;;5064244;28;20025;-93
2022/07/08 00:56:50;;;;;;;3.20;1.70;;;18.20;99.90;;;;;;5069780;28;20382;-94
2022/07/08 00:59:16;;;;;;;2.67;1.55;;;18.10;99.90;;;;;;5038796;28;20036;-92
2022/07/08 01:01:42;;;;;;;4.75;1.58;;;18.10;99.90;;;;;;5041516;28;20490;-93
2022/07/08 01:04:09;;;;;;;2.30;1.80;;;18.10;99.90;;;;;;5042806;28;20059;-93
2022/07/08 01:06:35;;;;;;;2.55;1.80;;;18.10;99.90;;;;;;5060495;28;20020;-92
2022/07/08 01:09:01;;;;;;;3.38;1.67;;;18.20;99.90;;;;;;5060832;28;20021;-93
2022/07/08 01:11:27;;;;;;;2.65;1.85;;;18.20;99.90;;;;;;5060356;28;20010;-90
2022/07/08 01:13:54;;;;;;;1.95;1.23;;;18.20;99.90;;;;;;5041422;28;20047;-90
2022/07/08 01:16:20;;;;;;;4.28;1.67;;;18.30;99.90;;;;;;5068256;28;20021;-90
2022/07/08 01:18:46;;;;;;;1.35;1.15;;;18.30;99.90;;;;;;5062536;28;20043;-89
2022/07/08 01:21:12;;;;;;;9.32;1.90;;;18.40;99.90;;;;;;5040415;28;20017;-91
2022/07/08 01:23:38;;;;;;;4.18;1.60;;;18.40;99.90;;;;;;5038875;28;20025;-90
2022/07/08 01:26:12;;;;;;;3.70;2.00;;;18.40;99.90;;;;;;5058758;28;20023;-91
2022/07/08 01:28:39;;;;;;;2.47;1.55;;;18.40;99.90;;;;;;5054130;28;20021;-91
2022/07/08 01:31:05;;;;;;;;;;;18.40;99.90;;;;;;5072593;28;20035;-90
2022/07/08 01:33:31;;;;;;;3.45;1.92;;;18.40;99.90;;;;;;5071519;28;19956;-91
2022/07/08 01:35:57;;;;;;;3.67;1.80;;;18.40;99.90;;;;;;5072808;28;20021;-92
2022/07/08 01:38:24;;;;;;;3.25;1.40;;;18.40;99.90;;;;;;5061567;28;20359;-91
2022/07/08 01:40:50;;;;;;;2.97;1.55;;;18.40;99.90;;;;;;5058346;28;20088;-90
2022/07/08 01:43:16;;;;;;;1.77;1.40;;;18.50;99.90;;;;;;5057975;28;20037;-90
2022/07/08 01:45:41;;;;;;;1.83;1.30;;;18.50;99.90;;;;;;5057573;28;20032;-90
2022/07/08 01:48:07;;;;;;;3.08;1.70;;;18.50;99.90;;;;;;5059434;28;20028;-91
2022/07/08 01:50:33;;;;;;;3.00;1.23;;;18.50;99.90;;;;;;5040710;28;20143;-91
2022/07/08 01:52:59;;;;;;;2.65;1.10;;;18.50;99.90;;;;;;5058670;28;20381;-91
2022/07/08 01:55:25;;;;;;;1.52;1.25;;;18.50;99.90;;;;;;5056757;28;20064;-91
2022/07/08 01:57:51;;;;;;;2.47;1.35;;;18.50;99.90;;;;;;5038814;28;20375;-90
2022/07/08 02:00:18;;;;;;;2.83;1.42;;;18.40;99.90;;;;;;5059187;28;20083;-90
2022/07/08 02:02:44;;;;;;;1.30;1.20;;;18.40;99.90;;;;;;5042892;28;20021;-91
2022/07/08 02:05:10;;;;;;;2.08;1.42;;;18.40;99.90;;;;;;5059240;28;20294;-90
2022/07/08 02:07:37;;;;;;;2.47;1.35;;;18.40;99.90;;;;;;5058859;28;20100;-89
2022/07/08 02:10:04;;;;;;;2.95;1.13;;;18.40;99.90;;;;;;5046718;28;20063;-91
2022/07/08 02:12:30;;;;;;;2.08;1.50;;;18.30;99.90;;;;;;5062609;28;20024;-87
2022/07/08 02:15:03;;;;;;;2.15;1.42;;;18.30;99.90;;;;;;5075080;28;20025;-89
2022/07/08 02:17:41;;;;;;;1.60;1.33;;;18.30;99.90;;;;;;5073447;28;20032;-88
2022/07/08 02:20:08;;;;;;;;;;;18.30;99.90;;;;;;5070312;28;20428;-91
2022/07/08 02:22:34;;;;;;;2.92;1.48;;;18.40;99.90;;;;;;5052497;28;19911;-91
2022/07/08 02:25:01;;;;;;;1.65;1.40;;;18.40;99.90;;;;;;5059844;28;20116;-92
2022/07/08 02:27:27;;;;;;;2.55;1.60;;;18.40;99.90;;;;;;5058554;28;20426;-92
2022/07/08 02:29:52;;;;;;;2.40;1.70;;;18.50;99.90;;;;;;5057034;28;20021;-92
2022/07/08 02:32:18;;;;;;;4.13;1.20;;;18.50;99.90;;;;;;5047282;28;20382;-91
2022/07/08 02:34:44;;;;;;;2.90;1.65;;;18.60;99.90;;;;;;5056595;28;20029;-92
2022/07/08 02:37:10;;;;;;;2.13;1.30;;;18.60;99.90;;;;;;5056704;28;20032;-90
2022/07/08 02:39:36;;;;;;;1.42;1.20;;;18.70;99.90;;;;;;5043921;28;20558;-93
2022/07/08 02:42:03;;;;;;;2.28;1.20;;;18.70;99.90;;;;;;5050611;28;20049;-93
2022/07/08 02:44:29;;;;;;;2.10;1.40;;;18.70;99.90;;;;;;5049940;28;20064;-92
2022/07/08 02:46:54;;;;;;;2.90;1.65;;;18.60;99.90;;;;;;5044690;28;20386;-93
2022/07/08 02:49:20;;;;;;;3.67;1.52;;;18.60;99.90;;;;;;5043381;28;20056;-91
2022/07/08 02:51:46;;;;;;;3.42;1.58;;;18.60;99.90;;;;;;5039042;28;20092;-92
2022/07/08 02:54:30;;;;;;;4.30;1.42;;;18.60;99.90;;;;;;5039056;28;20035;-91
2022/07/08 02:56:56;;;;;;;2.15;1.42;;;18.60;99.90;;;;;;5039805;28;20391;-91
2022/07/08 02:59:21;;;;;;;3.60;1.27;;;18.70;99.90;;;;;;5052466;28;20020;-91
2022/07/08 03:01:47;;;;;;;1.95;1.38;;;18.80;99.90;;;;;;5056234;28;20016;-91
2022/07/08 03:04:13;;;;;;;3.83;1.80;;;18.80;99.90;;;;;;5056647;28;20128;-92
2022/07/08 03:06:39;;;;;;;2.88;1.67;;;18.90;99.90;;;;;;5056817;28;20032;-91
2022/07/08 03:09:04;;;;;;;3.65;1.60;;;19.00;99.90;;;;;;5059744;28;20052;-92
2022/07/08 03:11:30;;;;;;;3.10;1.80;;;19.00;99.90;;;;;;5068304;28;20018;-90
2022/07/08 03:13:56;;;;;;;2.05;1.77;;;19.10;99.90;;;;;;5040585;28;20033;-92
2022/07/08 03:16:22;;;;;;;5.20;1.50;;;19.10;99.90;;;;;;5054661;28;20014;-91
2022/07/08 03:18:48;;;;;;;2.22;1.40;;;19.10;99.90;;;;;;5057446;28;20044;-91
2022/07/08 03:21:13;;;;;;;4.70;1.48;;;19.10;99.90;;;;;;5043436;28;20055;-92
2022/07/08 03:23:39;;;;;;;3.17;1.90;;;19.10;99.90;;;;;;5064200;28;20025;-92
2022/07/08 03:26:05;;;;;;;3.45;1.48;;;19.10;99.90;;;;;;5052733;28;20398;-91
2022/07/08 03:28:31;;;;;;;2.70;1.60;;;19.20;99.90;;;;;;5062080;28;20077;-92
2022/07/08 03:30:56;;;;;;;3.53;1.52;;;19.30;99.90;;;;;;5073349;28;20032;-91
2022/07/08 03:33:22;;;;;;;1.30;1.20;;;19.40;99.90;;;;;;5047524;28;20025;-92
2022/07/08 03:35:48;;;;;;;2.25;1.50;;;19.40;99.90;;;;;;5057298;28;20025;-90
2022/07/08 03:38:14;;;;;;;2.25;1.50;;;19.40;99.90;;;;;;5036672;28;20056;-91
2022/07/08 03:43:25;;;;;;;3.70;1.45;;;19.40;99.90;;;;;;5021159;28;20037;-92
2022/07/08 03:45:51;;;;;;;2.75;1.48;;;19.40;99.90;;;;;;5025151;28;20026;-93
2022/07/08 03:48:17;;;;;;;2.42;1.80;;;19.40;99.90;;;;;;5022587;28;20026;-94
2022/07/08 03:50:42;;;;;;;5.35;2.05;;;19.50;99.90;;;;;;5020703;28;20018;-92
2022/07/08 03:53:08;;;;;;;5.57;1.83;;;19.60;99.90;;;;;;5037696;28;20029;-93
2022/07/08 03:55:34;;;;;;;3.13;2.00;;;19.60;99.90;;;;;;5016929;28;20022;-91
2022/07/08 03:58:00;;;;;;;3.08;2.05;;;19.70;99.90;;;;;;5021059;28;20089;-91
2022/07/08 04:00:26;;;;;;;1.98;1.75;;;19.60;99.90;;;;;;5021052;28;20036;-92
2022/07/08 04:02:52;;;;;;;2.80;2.22;;;19.70;99.90;;;;;;5020903;28;20030;-93
2022/07/08 04:05:17;;;;;;;3.63;2.75;;;19.70;99.90;;;;;;5024264;28;20054;-92
2022/07/08 04:07:45;;;;;;;3.30;2.40;;;19.80;99.90;;;;;;5024721;28;20468;-91
2022/07/08 04:10:10;;;;;;;9.10;4.45;;;19.90;99.90;;;;;;5030524;28;20026;-91
2022/07/08 04:12:36;;;;;;;3.50;2.75;;;20.10;99.90;;;;;;5046549;28;20037;-88
2022/07/08 04:15:04;;;;;;;4.18;2.47;;;20.20;99.90;;;;;;5021590;28;20030;-90
2022/07/08 04:17:29;;;;;;;5.30;2.95;;;20.20;99.90;;;;;;5032625;28;20050;-90
2022/07/08 04:19:55;;;;;;;6.63;5.15;;;20.20;99.90;;;;;;5036118;28;20403;-90
2022/07/08 04:22:21;;;;;;;7.20;3.50;;;20.30;99.90;;;;;;5040600;28;20010;-90
2022/07/08 04:24:50;;;;;;;5.32;2.95;;;20.30;99.90;;;;;;5040643;28;20034;-90
2022/07/08 04:27:15;;;;;;;3.72;3.13;;;20.40;99.90;;;;;;5040906;28;20013;-87
2022/07/08 04:29:41;;;;;;;6.10;3.00;;;20.40;99.90;;;;;;5037948;28;20037;-89
2022/07/08 04:32:08;;;;;;;3.97;3.10;;;20.50;99.90;;;;;;5044987;28;20030;-89
2022/07/08 04:34:33;;;;;;;4.32;3.42;;;20.70;99.90;;;;;;5027008;28;20033;-91
2022/07/08 04:36:59;;;;;;;6.60;3.95;;;20.90;99.90;;;;;;5027892;28;20033;-92
2022/07/08 04:39:25;;;;;;;4.65;2.78;;;21.00;99.90;;;;;;5057131;28;20059;-91
2022/07/08 04:41:51;;;;;;;2.85;1.70;;;21.10;99.90;;;;;;5044499;28;20040;-92
2022/07/08 04:44:17;;;;;;;5.90;2.88;;;21.20;99.90;;;;;;5061409;28;20049;-90
2022/07/08 04:46:42;;;;;;;5.68;3.28;;;21.40;99.90;;;;;;5046006;28;20043;-89
2022/07/08 04:49:08;;;;;;;3.22;2.65;;;21.50;99.90;;;;;;5069604;28;20020;-92
2022/07/08 04:51:41;;;;;;;8.35;3.30;;;21.50;99.90;;;;;;5057423;28;20022;-92
2022/07/08 04:54:07;;;;;;;3.53;3.00;;;21.50;99.90;;;;;;5052496;28;20040;-91
2022/07/08 04:56:33;;;;;;;4.38;3.60;;;21.30;99.90;;;;;;5045656;28;20017;-89
2022/07/08 04:58:58;;;;;;;6.05;3.28;;;21.20;99.90;;;;;;5059835;28;20025;-91
2022/07/08 05:01:27;;;;;;;5.35;3.92;;;20.80;99.90;;;;;;5060042;28;20017;-92
2022/07/08 05:03:54;;;;;;;7.57;3.30;;;20.50;99.90;;;;;;5049753;28;20039;-90
2022/07/08 05:06:20;;;;;;;5.45;3.58;;;20.30;99.90;;;;;;5047917;28;20028;-90
2022/07/08 05:08:46;;;;;;;5.90;3.58;;;20.20;99.90;;;;;;5061535;28;20498;-92
2022/07/08 05:11:12;;;;;;;4.35;1.98;;;20.20;99.90;;;;;;5057664;28;20032;-91
2022/07/08 05:13:37;;;;;;;4.68;2.45;;;20.50;99.90;;;;;;5043913;28;20367;-93
2022/07/08 05:16:04;;;;;;;4.40;2.60;;;21.20;99.90;;;;;;5060510;28;20020;-91
2022/07/08 05:18:30;;;;;;;5.68;2.90;;;21.50;99.90;;;;;;5059562;28;20016;-92
2022/07/08 05:20:56;;;;;;;4.50;3.38;;;21.70;99.90;;;;;;5059713;28;20033;-87
2022/07/08 05:23:22;;;;;;;3.63;2.65;;;;;;;;;;5058998;28;20490;-91
2022/07/08 05:25:48;;;;;;;4.22;2.60;;;22.30;99.90;;;;;;5058653;28;20081;-90
2022/07/08 05:28:14;;;;;;;6.03;2.42;;;22.70;96.80;;;;;;5046289;28;20051;-91
2022/07/08 05:30:40;;;;;;;5.28;2.92;;;22.50;98.80;;;;;;5060196;28;20544;-92
2022/07/08 05:33:06;;;;;;;5.18;2.20;;;22.70;99.90;;;;;;5058466;28;20025;-93
2022/07/08 05:35:32;;;;;;;3.38;2.33;;;23.40;99.90;;;;;;5027208;28;20025;-90
2022/07/08 05:38:05;;;;;;;3.50;1.98;;;23.60;96.60;;;;;;5039609;28;20042;-91
2022/07/08 05:40:32;;;;;;;4.65;2.30;;;23.40;95.30;;;;;;5020180;28;20021;-91
2022/07/08 05:42:58;;;;;;;;;;;23.30;97.90;;;;;;5019767;28;20514;-91
2022/07/08 05:45:24;;;;;;;4.72;2.50;;;23.10;99.90;;;;;;5019678;28;19918;-92
2022/07/08 05:47:53;;;;;;;8.52;2.90;;;22.70;99.90;;;;;;5017603;28;20094;-90
2022/07/08 05:50:19;;;;;;;8.57;2.33;;;22.60;99.90;;;;;;5021020;28;20081;-91
2022/07/08 05:52:44;;;;;;;4.22;2.15;;;22.60;99.90;;;;;;5020650;28;20026;-92
2022/07/08 05:55:12;;;;;;;4.03;2.05;;;22.50;99.90;;;;;;5015476;28;20033;-91
2022/07/08 05:57:38;;;;;;;6.20;2.35;;;22.40;98.50;;;;;;5018488;28;20102;-91
2022/07/08 06:00:05;;;;;;;4.50;2.05;;;22.10;99.90;;;;;;5031878;28;20050;-92
2022/07/08 06:02:34;;;;;;;3.80;1.80;;;22.10;99.90;;;;;;5013001;28;20030;-92
2022/07/08 06:04:59;;;;;;;4.05;2.00;;;22.50;99.90;;;;;;5019920;28;20068;-92
2022/07/08 06:07:25;;;;;;;3.05;2.15;;;23.50;99.90;;;;;;5018792;28;20026;-91
2022/07/08 06:09:51;;;;;;;2.63;1.83;;;23.90;97.50;;;;;;5023622;28;20033;-90
2022/07/08 06:12:18;;;;;;;3.47;1.75;;;24.50;95.20;;;;;;5005102;28;20487;-91
2022/07/08 06:14:44;;;;;;;2.42;1.50;;;26.00;91.30;;;;;;5022090;28;20099;-92
2022/07/08 06:17:11;;;;;;;3.13;1.55;;;27.60;85.50;;;;;;5031309;28;20049;-92
2022/07/08 06:19:36;;;;;;;;;;;28.80;83.60;;;;;;5034303;28;20036;-91
2022/07/08 06:22:02;;;;;;;1.53;1.10;;;29.50;92.30;;;;;;5033174;28;19914;-93
2022/07/08 06:24:28;;;;;;;3.33;1.45;;;29.80;76.90;;;;;;5032853;28;20026;-92
2022/07/08 06:26:55;;;;;;;1.92;1.10;;;;;;;;;;5027405;28;20048;-91
2022/07/08 06:29:24;;;;;;;3.07;1.20;;;32.20;67.80;;;;;;5040357;28;20029;-92
2022/07/08 06:31:50;;;;;;;2.28;1.33;;;31.40;64.50;;;;;;5032843;28;20022;-93
2022/07/08 06:34:17;;;;;;;1.83;1.48;;;30.30;69.00;;;;;;5038841;28;20065;-92
2022/07/08 06:36:43;;;;;;;3.13;1.45;;;29.60;73.10;;;;;;5030640;28;20041;-88
2022/07/08 06:39:09;;;;;;;4.60;1.85;;;28.60;75.10;;;;;;5020410;28;20048;-88
2022/07/08 06:41:35;;;;;;;2.28;1.83;;;27.60;79.00;;;;;;5025817;28;20025;-91
2022/07/08 06:44:05;;;;;;;3.83;1.53;;;26.50;77.90;;;;;;5026686;28;20034;-88
2022/07/08 06:46:32;;;;;;;3.20;1.63;;;25.40;80.60;;;;;;5021757;28;20018;-92
2022/07/08 06:48:58;;;;;;;4.97;1.92;;;24.80;86.90;;;;;;5020729;28;20026;-87
2022/07/08 06:51:24;;;;;;;4.38;1.80;;;24.70;91.00;;;;;;5020245;28;20482;-89
2022/07/08 06:56:34;;;;;;;4.50;1.63;;;27.10;90.50;;;;;;5020995;28;20072;-90
2022/07/08 06:59:00;;;;;;;2.45;1.45;;;29.70;75.60;;;;;;5022770;28;20022;-90
2022/07/08 07:01:26;;;;;;;4.40;1.50;;;30.90;68.10;;;;;;5019643;28;20101;-89
2022/07/08 07:03:52;;;;;;;5.57;1.40;;;31.70;68.40;;;;;;5019667;28;20087;-89
2022/07/08 07:06:18;;;;;;;5.10;1.70;;;31.40;68.50;;;;;;5018079;28;20025;-90
2022/07/08 07:08:46;;;;;;;2.22;1.35;;;30.60;68.70;;;;;;5017431;28;20033;-88
2022/07/08 07:11:12;;;;;;;1.67;1.35;;;29.80;65.00;;;;;;5017417;28;20026;-89
2022/07/08 07:13:38;;;;;;;4.22;1.88;;;28.70;70.40;;;;;;5003000;28;20483;-90
2022/07/08 07:16:04;;;;;;;2.35;1.48;;;28.30;72.10;;;;;;5018109;28;20018;-91
2022/07/08 07:18:30;;;;;;;3.87;1.57;;;29.90;76.40;;;;;;5018158;28;20018;-91
2022/07/08 07:20:55;;;;;;;1.83;1.53;;;32.80;93.40;;;;;;5021909;28;20032;-91
2022/07/08 07:23:21;;;;;;;4.10;1.70;;;34.00;67.30;;;;;;5021472;28;20026;-91
2022/07/08 07:25:47;;;;;;;4.97;1.80;;;34.90;63.90;;;;;;5021695;28;20022;-90
2022/07/08 07:28:13;;;;;;;6.90;1.57;;;35.10;60.40;;;;;;5022484;28;20460;-89
2022/07/08 07:30:39;;;;;;;10.27;2.00;;;34.90;58.10;;;;;;5020978;28;20087;-91
2022/07/08 07:33:05;;;;;;;4.77;1.27;;;34.70;59.60;;;;;;5023553;28;20065;-91
2022/07/08 07:35:31;;;;;;;3.17;1.73;;;34.50;56.20;;;;;;5020720;28;20380;-90
2022/07/08 07:38:00;;;;;;;4.37;1.83;;;33.40;59.20;;;;;;5032702;28;20039;-90
2022/07/08 07:40:26;;;;;;;5.07;1.80;;;31.50;58.50;;;;;;5060483;28;20051;-92
2022/07/08 07:42:51;;;;;;;7.50;2.30;;;31.00;61.70;;;;;;5061818;28;20077;-89
2022/07/08 07:45:17;;;;;;;1.50;1.37;;;31.80;65.00;;;;;;5060546;28;20463;-89
2022/07/08 07:47:43;;;;;;;3.20;1.40;;;33.10;58.30;;;;;;5061450;28;20063;-89
2022/07/08 07:50:09;;;;;;;5.40;1.57;;;34.70;71.40;;;;;;5067512;28;20047;-89
2022/07/08 07:52:35;;;;;;;3.60;1.88;;;;;;;;;;5068063;28;20021;-90
2022/07/08 07:55:01;;;;;;;3.67;1.40;;;36.60;55.40;;;;;;5066760;28;20025;-89
2022/07/08 07:57:27;;;;;;;2.73;1.63;;;36.90;52.70;;;;;;5080026;28;20021;-89
2022/07/08 07:59:53;;;;;;;4.40;1.40;;;35.20;54.90;;;;;;5067800;28;20028;-90
2022/07/08 08:02:18;;;;;;;4.27;1.83;;;33.60;57.50;;;;;;5057665;28;20441;-90
2022/07/08 08:04:45;;;;;;;2.60;1.60;;;32.90;58.40;;;;;;5060148;28;20081;-89
2022/07/08 08:07:10;;;;;;;2.83;1.65;;;33.10;60.90;;;;;;5058619;28;20032;-91
2022/07/08 08:09:36;;;;;;;1.87;1.13;;;33.90;57.90;;;;;;5059415;28;20104;-91
2022/07/08 08:12:02;;;;;;;1.10;1.00;;;33.40;55.60;;;;;;5059208;28;20468;-89
2022/07/08 08:14:28;;;;;;;7.47;1.47;;;32.80;58.80;;;;;;5058413;28;20158;-92
2022/07/08 08:16:54;;;;;;;2.57;1.40;;;32.60;58.20;;;;;;5041151;28;20242;-91
2022/07/08 08:19:20;;;;;;;3.63;1.60;;;31.60;57.10;;;;;;5060082;28;20590;-91
2022/07/08 08:21:48;;;;;;;3.65;1.63;;;30.60;61.50;;;;;;5059366;28;20033;-89
2022/07/08 08:24:13;;;;;;;3.17;1.60;;;29.90;61.00;;;;;;5060537;28;20033;-90
2022/07/08 08:26:39;;;;;;;4.97;1.85;;;29.20;61.10;;;;;;5049689;28;20466;-88
2022/07/08 08:29:05;;;;;;;2.45;1.77;;;28.60;66.00;;;;;;5061226;28;20108;-90
2022/07/08 08:31:31;;;;;;;4.20;2.10;;;28.00;66.80;;;;;;5045107;28;20390;-91
2022/07/08 08:33:58;;;;;;;6.18;2.30;;;27.40;65.50;;;;;;5061608;28;20048;-90
2022/07/08 08:36:24;;;;;;;10.18;3.25;;;27.00;66.30;;;;;;5061371;28;20233;-89
2022/07/08 08:38:51;;;;;;;5.55;1.90;;;27.30;66.60;;;;;;5061712;28;20063;-91
2022/07/08 08:41:17;;;;;;;4.47;1.80;;;27.60;69.40;;;;;;5047777;28;20107;-89
2022/07/08 08:43:43;;;;;;;3.03;2.05;;;28.80;66.70;;;;;;5064075;28;20044;-91
2022/07/08 08:46:11;;;;;;;3.28;1.35;;;30.00;61.10;;;;;;5047869;28;20058;-90
2022/07/08 08:48:39;;;;;;;4.70;1.70;;;31.30;60.40;;;;;;5062244;28;20028;-92
2022/07/08 08:51:09;;;;;;;2.92;1.67;;;31.20;60.00;;;;;;5064301;28;20029;-89
2022/07/08 08:53:44;;;;;;;1.80;1.42;;;31.50;58.20;;;;;;5063027;28;20400;-89
2022/07/08 08:56:11;;;;;;;1.90;1.08;;;;;;;;;;5056554;28;20021;-89
2022/07/08 08:58:48;;;;;;;2.63;1.50;;;34.70;55.50;;;;;;5043229;28;20052;-90
2022/07/08 09:01:15;;;;;;;3.80;1.55;;;36.70;50.90;;;;;;5059161;28;20025;-92
2022/07/08 09:03:42;;;;;;;1.92;1.10;;;37.30;46.60;;;;;;5060787;28;20036;-92
2022/07/08 09:06:08;;;;;;;;;;;37.10;47.20;;;;;;5064127;28;20153;-91
2022/07/08 09:08:35;;;;;;;;;;;36.80;60.20;;;;;;5061170;28;19940;-92
2022/07/08 09:11:01;;;;;;;2.03;1.75;;;36.80;77.00;;;;;;5059863;28;20377;-91
2022/07/08 09:13:32;;;;;;;3.20;1.73;;;36.90;51.10;;;;;;5062970;28;20021;-93
2022/07/08 09:15:59;;;;;;;5.53;2.35;;;37.60;50.90;;;;;;5056402;28;20067;-92
2022/07/08 09:18:30;;;;;;;2.70;1.30;;;37.80;48.50;;;;;;5066004;28;20029;-90
2022/07/08 09:20:58;;;;;;;2.72;1.48;;;36.70;49.10;;;;;;5066277;28;20032;-91
2022/07/08 09:23:28;;;;;;;2.67;1.60;;;36.10;50.00;;;;;;5061065;28;20021;-93
2022/07/08 09:26:05;;;;;;;3.38;1.83;;;35.80;50.70;;;;;;5059007;28;20055;-91
2022/07/08 09:28:45;;;;;;;2.20;1.38;;;35.80;50.20;;;;;;5059002;28;20070;-92
2022/07/08 09:31:14;;;;;;;4.43;1.70;;;36.10;51.90;;;;;;5061730;28;20021;-92
2022/07/08 09:33:40;;;;;;;6.45;1.75;;;35.60;50.40;;;;;;5055013;28;20021;-94
2022/07/08 09:36:08;;;;;;;4.47;1.80;;;35.50;51.90;;;;;;5060037;28;20534;-92
2022/07/08 09:38:37;;;;;;;5.43;2.30;;;35.60;51.30;;;;;;5059131;28;20127;-93
2022/07/08 09:41:09;;;;;;;9.45;2.05;;;35.60;50.30;;;;;;5052971;28;20084;-92
2022/07/08 09:43:50;;;;;;;4.03;2.00;;;36.00;52.20;;;;;;5053632;28;20032;-94
2022/07/08 09:46:17;;;;;;;2.92;1.90;;;36.00;53.20;;;;;;5047955;28;20054;-91
2022/07/08 09:48:43;;;;;;;2.97;1.80;;;34.50;52.70;;;;;;5060916;28;20498;-93
2022/07/08 09:51:18;;;;;;;5.73;2.20;;;32.90;53.20;;;;;;5054544;28;20025;-93
2022/07/08 09:53:44;;;;;;;4.82;2.00;;;31.80;58.40;;;;;;5049748;28;20032;-92
2022/07/08 09:56:13;;;;;;;5.28;1.60;;;32.20;56.50;;;;;;5062842;28;20063;-92
2022/07/08 09:58:46;;;;;;;;;;;33.50;55.60;;;;;;5050407;28;20049;-91
2022/07/08 10:01:13;;;;;;;2.08;1.58;;;33.60;50.80;;;;;;5044270;28;19904;-93
2022/07/08 10:03:42;;;;;;;3.55;1.92;;;33.70;54.80;;;;;;5048211;28;20048;-95
2022/07/08 10:06:10;;;;;;;5.60;2.03;;;35.10;53.20;;;;;;5064132;28;20036;-93
2022/07/08 10:08:37;;;;;;;3.47;1.75;;;36.70;52.90;;;;;;5068442;28;20497;-91
2022/07/08 10:11:10;;;;;;;3.15;1.88;;;38.20;49.60;;;;;;5050950;28;20031;-95
2022/07/08 10:13:39;;;;;;;2.85;1.58;;;37.90;49.60;;;;;;5027814;28;20027;-96
2022/07/08 10:16:09;;;;;;;4.00;1.60;;;36.90;47.90;;;;;;5067473;28;20029;-93
2022/07/08 10:18:54;;;;;;;2.60;1.88;;;34.90;51.00;;;;;;5029348;28;20018;-94
2022/07/08 10:21:24;;;;;;;2.80;1.10;;;33.40;54.60;;;;;;5039580;28;20044;-95
2022/07/08 10:24:11;;;;;;;2.85;1.80;;;32.40;54.60;;;;;;5063072;28;20020;-95
2022/07/08 10:26:42;;;;;;;7.95;2.55;;;31.90;55.10;;;;;;5062964;28;20035;-95
2022/07/08 10:29:13;;;;;;;3.50;1.77;;;32.50;56.60;;;;;;5061104;28;20025;-96
2022/07/08 10:32:06;;;;;;;3.97;1.90;;;33.80;52.90;;;;;;5050513;28;20035;-96
2022/07/08 10:34:35;;;;;;;3.42;2.20;;;34.00;52.90;;;;;;5191887;22;20075;-96
2022/07/08 10:37:10;;;;;;;3.95;2.13;;;33.00;54.00;;;;;;5089102;28;20505;-96
2022/07/08 10:39:42;;;;;;;3.55;2.20;;;31.80;56.70;;;;;;5093381;28;20028;-96
2022/07/08 10:42:12;;;;;;;3.80;2.42;;;30.80;59.10;;;;;;5082659;28;20029;-96
2022/07/08 10:44:47;;;;;;;6.47;1.90;;;29.90;61.10;;;;;;5092782;28;20047;-96
2022/07/08 10:47:34;;;;;;;2.25;2.05;;;28.90;59.90;;;;;;5097623;28;20020;-95
2022/07/08 10:50:11;;;;;;;4.70;2.30;;;28.00;62.50;;;;;;5092992;28;20044;-96
2022/07/08 10:52:57;;;;;;;4.40;1.83;;;27.60;65.00;;;;;;5076634;28;20029;-96
2022/07/08 10:55:28;;;;;;;3.95;2.70;;;27.60;67.60;;;;;;5086675;28;20025;-96
2022/07/08 10:58:08;;;;;;;2.17;1.98;;;27.90;66.00;;;;;;5068687;28;20029;-96
2022/07/08 11:00:57;;;;;;;5.47;2.40;;;27.80;66.40;;;;;;5069202;28;20020;-96
2022/07/08 11:03:45;;;;;;;6.60;2.40;;;27.40;67.10;;;;;;5086572;28;20050;-94
2022/07/08 11:09:24;;;;;;;4.15;2.00;;;26.70;68.30;;;;;;5169128;22;20041;-94
2022/07/08 11:11:52;;;;;;;2.47;2.25;;;26.50;68.30;;;;;;5235403;23;20036;-95
2022/07/08 11:14:25;;;;;;;2.65;1.80;;;26.20;65.70;;;;;;5072178;28;20028;-96
2022/07/08 11:17:14;;;;;;;2.67;2.25;;;25.90;66.00;;;;;;5069457;28;20052;-96
2022/07/08 11:19:53;;;;;;;2.33;2.00;;;25.80;68.60;;;;;;5067724;28;20037;-95
2022/07/08 11:22:22;;;;;;;3.40;2.00;;;25.70;68.30;;;;;;5068469;28;20014;-95
2022/07/08 11:24:58;;;;;;;4.07;2.38;;;25.60;70.00;;;;;;5066060;28;20437;-96
2022/07/08 11:27:33;;;;;;;5.07;2.20;;;25.70;72.00;;;;;;5071750;28;20048;-94
2022/07/08 11:30:10;;;;;;;2.13;1.73;;;25.90;72.60;;;;;;5071601;28;20025;-96
2022/07/08 11:32:40;;;;;;;4.43;1.63;;;25.90;69.20;;;;;;5070575;28;20044;-95
2022/07/08 11:35:07;;;;;;;2.53;1.98;;;25.90;71.40;;;;;;5067738;28;20044;-96
2022/07/08 11:37:42;;;;;;;4.78;2.30;;;25.80;72.10;;;;;;5031633;28;20116;-95
2022/07/08 11:40:16;;;;;;;20.55;4.93;;;25.80;71.30;;;;;;5046680;28;20025;-96
2022/07/08 11:42:43;;;;;;;3.13;2.42;;;25.90;72.80;;;;;;5050335;28;20026;-96
2022/07/08 11:45:20;;;;;;;4.15;2.20;;;26.00;70.30;;;;;;5047254;28;20053;-96
2022/07/08 11:47:49;;;;;;;4.87;2.13;;;26.00;67.20;;;;;;5049102;28;20022;-96
2022/07/08 11:58:34;;;;;;;57.42;9.75;;;25.70;70.50;;;;;;5054643;28;20068;-96
2022/07/08 12:06:26;;;;;;;4.22;2.20;;;25.30;71.90;;;;;;5238758;22;20112;-96
2022/07/08 12:08:56;;;;;;;4.28;1.95;;;25.50;70.20;;;;;;5041438;28;20033;-96
2022/07/08 12:11:39;;;;;;;3.45;1.90;;;25.50;74.70;;;;;;5061624;28;20025;-96
2022/07/08 12:14:12;;;;;;;2.35;1.52;;;25.70;70.80;;;;;;5040716;28;20044;-96
2022/07/08 12:16:51;;;;;;;5.05;1.80;;;25.70;68.40;;;;;;5024009;28;20071;-96
2022/07/08 12:19:39;;;;;;;3.40;1.75;;;25.70;70.50;;;;;;5059785;28;20067;-96
2022/07/08 12:22:39;;;;;;;6.13;2.45;;;25.60;72.30;;;;;;5075407;28;20100;-95
2022/07/08 12:25:05;;;;;;;40.38;7.68;;;25.70;69.80;;;;;;5017779;28;20057;-95
2022/07/08 12:27:32;;;;;;;3.00;1.80;;;25.70;72.10;;;;;;5014874;28;20193;-96
2022/07/08 12:30:09;;;;;;;4.32;2.05;;;25.70;71.50;;;;;;5032521;28;20434;-96
2022/07/08 12:32:36;;;;;;;;;;;25.70;72.70;;;;;;5033274;28;20034;-96
2022/07/08 12:35:16;;;;;;;34.20;6.68;;;25.70;78.90;;;;;;5052523;28;19931;-96
2022/07/08 12:37:44;;;;;;;6.32;2.53;;;25.70;69.90;;;;;;5030658;28;20030;-96
2022/07/08 12:40:20;;;;;;;3.72;2.97;;;25.60;70.50;;;;;;5031575;28;20707;-95
2022/07/08 12:43:09;;;;;;;2.72;1.80;;;25.40;73.10;;;;;;5006115;28;20030;-96
2022/07/08 12:45:36;;;;;;;4.47;2.13;;;25.40;71.80;;;;;;5011188;28;20539;-96
2022/07/08 12:48:07;;;;;;;9.70;2.03;;;25.40;72.30;;;;;;5029937;28;20053;-96
2022/07/08 12:50:34;;;;;;;2.65;2.10;;;25.50;72.20;;;;;;5006891;28;20026;-96
2022/07/08 12:53:03;;;;;;;6.97;2.10;;;25.50;74.80;;;;;;5010043;28;20030;-96
2022/07/08 12:55:29;;;;;;;3.05;1.75;;;25.50;73.30;;;;;;5010704;28;20029;-95
2022/07/08 12:57:56;;;;;;;2.35;2.15;;;25.60;75.20;;;;;;5029279;28;20030;-94
2022/07/08 13:00:22;;;;;;;4.97;1.77;;;25.70;74.20;;;;;;5013157;28;20129;-95
2022/07/08 13:02:51;;;;;;;3.58;1.70;;;25.70;76.50;;;;;;5024034;28;20117;-94
2022/07/08 13:05:20;;;;;;;5.97;2.30;;;25.70;77.20;;;;;;5022097;28;20043;-94
2022/07/08 13:07:47;;;;;;;3.85;2.50;;;25.70;78.20;;;;;;5026519;28;20143;-95
2022/07/08 13:10:13;;;;;;;5.43;2.50;;;25.50;72.80;;;;;;5029677;28;20061;-95
2022/07/08 13:12:47;;;;;;;5.20;1.95;;;25.50;75.80;;;;;;5007528;28;20034;-95
2022/07/08 13:15:14;;;;;;;60.38;10.15;;;25.50;76.10;;;;;;5022643;28;20057;-96
2022/07/08 13:17:41;;;;;;;8.13;2.78;;;25.50;72.20;;;;;;5027079;28;20033;-95